Pasadena 2N

39° 08' 31"N, 76° 30' 27"W, Elevation 43 ft.
Eastern Time

Hourly observations for the last 72 hours

Date Time Temperature (°F) Humi-
dity

(%)
Wind
(mph)
Pressure Rain (in) Sun
(W/m2)
ET
(in)
Air Dew 6 Hour 1 Hr 3 Hr 6 Hr Day
Alt
(in)
Sea
Level

(mb)
Max Min
22 13:00 58.5 44.7 58.8 39.9 60 S 1 G 6 30.07 1018.2 0.00 202 0.011
22 12:00 56.9 44.4 63 SSW 3 G 8 30.09 1019.0 0.00 258 0.006
22 11:00 49.0 40.7 73 NE 1 G 3 30.13 1020.4 0.00 190 0.003
22 10:00 48.0 40.5 75 ESE 0 G 2 30.14 1020.7 0.00 149 0.001
22 09:00 42.4 37.9 84 Calm 30.13 1020.4 0.00 76 0.000
22 08:00 40.0 36.4 87 Calm 30.12 1020.1 0.00 21 0.000
22 07:00 40.2 36.6 42.6 40.0 87 Calm 30.12 1019.9 0.00 0 0.000
22 06:00 40.0 36.4 87 Calm 30.11 1019.7 0.00 0 0.000
22 05:00 40.3 36.4 86 WSW 0 G 2 30.10 1019.4 0.00 0 0.000
22 04:00 40.9 36.7 85 Calm 30.11 1019.6 0.00 0 0.000
22 03:00 41.7 37.2 84 Calm 30.11 1019.7 0.00 0 0.000
22 02:00 41.9 37.4 84 Calm 30.11 1019.8 0.00 0 0.000
22 01:00 42.5 38.0 48.7 42.1 84 WSW 1 G 2 30.11 1019.8 0.00 0 0.000
22 00:00 42.7 37.6 82 Calm 30.13 1020.3 0.00 0 0.034
21 23:00 45.6 38.8 77 WSW 0 G 4 30.12 1020.1 0.00 0 0.033
21 22:00 45.7 39.2 78 SSE 3 G 8 30.13 1020.4 0.00 0 0.032
21 21:00 43.4 38.3 82 S 3 G 5 30.12 1020.0 0.00 0 0.031
21 20:00 47.9 40.0 74 SE 1 G 1 30.14 1020.5 0.00 0 0.030
21 19:00 48.6 39.6 55.8 48.6 71 SSE 5 G 12 30.13 1020.5 0.00 0 0.029
21 18:00 50.1 39.6 67 S 1 G 9 30.14 1020.6 0.00 0 0.028
21 17:00 50.6 39.7 66 SSE 0 G 3 30.14 1020.8 0.00 7 0.027
21 16:00 52.8 40.1 62 S 2 G 4 30.14 1020.7 0.00 72 0.024
21 15:00 54.4 39.9 58 E 3 G 9 30.14 1020.6 0.00 146 0.019
21 14:00 55.4 40.0 56 S 2 G 7 30.14 1020.8 0.00 230 0.012
21 13:00 54.4 40.8 54.4 33.5 60 S 2 G 9 30.15 1021.0 0.00 524 0.007
21 12:00 48.4 39.1 70 S 0 G 2 30.19 1022.4 0.00 134 0.004
21 11:00 46.8 39.3 75 Calm 30.21 1023.1 0.00 121 0.002
21 10:00 43.3 37.9 81 S 1 G 2 30.22 1023.3 0.00 76 0.001
21 09:00 40.0 36.2 86 S 1 G 2 30.20 1022.7 0.00 44 0.000
21 08:00 37.0 34.1 89 S 0 G 2 30.17 1021.9 0.00 21 0.000
21 07:00 33.5 30.9 35.7 31.7 90 WNW 2 G 2 30.17 1021.7 0.00 0 0.000
21 06:00 34.2 31.0 88 WNW 0 G 1 30.15 1021.0 0.00 0 0.000
21 04:00 32.5 28.8 86 W 1 G 2 30.11 1019.8 0.00 0 0.000
21 03:00 32.4 28.7 86 W 1 G 3 30.11 1019.8 0.00 0 0.000
21 02:00 33.0 28.4 83 Calm 30.09 1019.2 0.00 0 0.000
21 01:00 33.8 28.6 40.2 33.8 81 W 0 G 3 30.09 1018.9 0.00 0 0.000
21 00:00 34.9 29.4 80 W 0 G 2 30.08 1018.7 0.00 0 0.049
20 23:00 36.5 30.0 77 W 1 G 3 30.07 1018.4 0.00 0 0.049
20 22:00 34.9 29.7 81 Calm 30.06 1018.1 0.00 0 0.049
20 21:00 35.0 28.8 78 Calm 30.06 1017.9 0.00 0 0.049
20 20:00 37.0 29.5 74 S 0 G 2 30.04 1017.4 0.00 0 0.048
20 18:00 44.7 31.7 60 S 0 G 2 29.99 1015.5 0.00 0 0.047
20 17:00 49.3 33.4 54 WSW 0 G 3 29.97 1015.0 0.00 7 0.046
20 16:00 56.4 34.8 44 SW 2 G 8 29.95 1014.4 0.00 25 0.043
20 15:00 58.3 33.5 39 SW 4 G 8 29.94 1013.9 0.00 86 0.037
20 14:00 57.5 34.6 42 W 6 G 18 29.94 1013.9 0.00 494 0.028
20 13:00 56.8 32.7 57.2 27.7 40 W 5 G 17 29.94 1014.1 0.00 394 0.015
20 12:00 55.7 33.0 42 WSW 8 G 15 29.96 1014.7 0.00 538 0.007
20 11:00 51.8 27.6 39 SSW 4 G 10 29.99 1015.6 0.00 40 0.005
20 10:00 43.0 20.9 41 SSW 2 G 6 30.01 1016.2 0.00 33 0.004
20 09:00 32.5 20.2 60 W 1 G 3 30.01 1016.2 0.00 28 0.003
20 08:00 29.0 18.7 65 WSW 1 G 4 30.00 1015.8 0.00 14 0.003
20 07:00 28.1 17.5 28.4 25.3 64 S 1 G 4 29.97 1015.0 0.00 0 0.002
20 06:00 25.8 18.3 73 W 1 G 3 29.97 1015.0 0.00 0 0.002
20 05:00 25.7 20.1 79 SSW 0 G 2 29.97 1015.0 0.00 0 0.002
20 04:00 26.7 18.9 72 SSW 0 G 2 29.96 1014.7 0.00 0 0.001
20 03:00 27.9 18.4 67 Calm 29.98 1015.2 0.00 0 0.000
20 02:00 27.8 20.0 72 SW 0 G 4 29.98 1015.1 0.00 0 0.000
20 01:00 26.7 20.2 33.8 26.7 76 SW 0 G 2 29.99 1015.7 0.00 0 0.000
20 00:00 27.0 20.8 77 S 2 G 2 30.01 1016.2 0.00 0 0.052
19 23:00 27.4 20.8 76 S 0 G 2 30.02 1016.5 0.00 0 0.052
19 22:00 28.3 21.1 74 S 1 G 1 30.03 1016.9 0.00 0 0.051
19 20:00 31.4 22.8 70 SSE 3 G 7 30.03 1017.0 0.00 0 0.049
19 19:00 33.8 21.8 51.0 33.8 61 SSE 3 G 6 30.03 1017.0 0.00 0 0.048
19 18:00 37.5 21.9 53 SSE 3 G 8 30.02 1016.7 0.00 0 0.047
19 17:00 42.3 20.8 42 SSE 4 G 9 30.02 1016.7 0.00 7 0.045
19 16:00 49.7 17.9 28 WSW 2 G 8 30.02 1016.7 0.00 56 0.042
19 15:00 49.4 20.8 32 WNW 2 G 9 30.02 1016.7 0.00 53 0.036
19 14:00 50.5 21.0 31 SSW 2 G 11 30.03 1016.9 0.00 485 0.025

Data generated by WxSolution Version 1.9.0.7, Build 2017.01.19.